sensor_id;sensor_type;location;lat;lon;timestamp;temperature;humidity
8709;DHT22;4391;48.678;9.280;2022-09-17T00:01:29;9.20;99.90
8709;DHT22;4391;48.678;9.280;2022-09-17T00:03:59;9.20;99.90
8709;DHT22;4391;48.678;9.280;2022-09-17T00:06:29;9.20;99.90
8709;DHT22;4391;48.678;9.280;2022-09-17T00:08:57;9.10;99.90
8709;DHT22;4391;48.678;9.280;2022-09-17T00:11:26;9.10;99.90
8709;DHT22;4391;48.678;9.280;2022-09-17T00:13:54;9.00;99.90
8709;DHT22;4391;48.678;9.280;2022-09-17T00:16:24;9.00;99.90
8709;DHT22;4391;48.678;9.280;2022-09-17T00:18:52;8.90;99.90
8709;DHT22;4391;48.678;9.280;2022-09-17T00:21:20;9.00;99.90
8709;DHT22;4391;48.678;9.280;2022-09-17T00:23:47;9.00;99.90
8709;DHT22;4391;48.678;9.280;2022-09-17T00:26:14;9.00;99.90
8709;DHT22;4391;48.678;9.280;2022-09-17T00:28:41;9.00;99.90
8709;DHT22;4391;48.678;9.280;2022-09-17T00:31:13;9.10;99.90
8709;DHT22;4391;48.678;9.280;2022-09-17T00:33:39;9.10;99.90
8709;DHT22;4391;48.678;9.280;2022-09-17T00:36:07;9.10;99.90
8709;DHT22;4391;48.678;9.280;2022-09-17T00:38:35;9.20;99.90
8709;DHT22;4391;48.678;9.280;2022-09-17T00:41:03;9.20;99.90
8709;DHT22;4391;48.678;9.280;2022-09-17T00:43:36;9.20;99.90
8709;DHT22;4391;48.678;9.280;2022-09-17T00:46:05;9.20;99.90
8709;DHT22;4391;48.678;9.280;2022-09-17T00:48:32;9.20;99.90
8709;DHT22;4391;48.678;9.280;2022-09-17T00:51:00;9.20;99.90
8709;DHT22;4391;48.678;9.280;2022-09-17T00:53:27;9.30;99.90
8709;DHT22;4391;48.678;9.280;2022-09-17T00:56:01;9.20;99.90
8709;DHT22;4391;48.678;9.280;2022-09-17T00:58:29;9.20;99.90
8709;DHT22;4391;48.678;9.280;2022-09-17T01:00:56;9.20;99.90
8709;DHT22;4391;48.678;9.280;2022-09-17T01:03:24;9.20;99.90
8709;DHT22;4391;48.678;9.280;2022-09-17T01:06:00;9.20;98.70
8709;DHT22;4391;48.678;9.280;2022-09-17T01:08:36;9.20;98.90
8709;DHT22;4391;48.678;9.280;2022-09-17T01:11:29;9.20;99.90
8709;DHT22;4391;48.678;9.280;2022-09-17T01:14:09;9.20;99.90
8709;DHT22;4391;48.678;9.280;2022-09-17T01:16:45;9.20;94.40
8709;DHT22;4391;48.678;9.280;2022-09-17T01:19:31;9.30;96.60
8709;DHT22;4391;48.678;9.280;2022-09-17T01:22:07;9.30;99.90
8709;DHT22;4391;48.678;9.280;2022-09-17T01:28:13;9.30;99.90
8709;DHT22;4391;48.678;9.280;2022-09-17T01:31:00;9.20;99.90
8709;DHT22;4391;48.678;9.280;2022-09-17T01:33:34;9.20;99.90
8709;DHT22;4391;48.678;9.280;2022-09-17T01:36:16;9.20;97.80
8709;DHT22;4391;48.678;9.280;2022-09-17T01:38:51;9.20;97.70
8709;DHT22;4391;48.678;9.280;2022-09-17T01:41:28;9.20;99.90
8709;DHT22;4391;48.678;9.280;2022-09-17T01:43:59;9.20;99.90
8709;DHT22;4391;48.678;9.280;2022-09-17T01:46:32;9.20;99.90
8709;DHT22;4391;48.678;9.280;2022-09-17T01:49:04;9.10;98.10
8709;DHT22;4391;48.678;9.280;2022-09-17T01:51:35;9.10;99.90
8709;DHT22;4391;48.678;9.280;2022-09-17T01:54:06;8.90;99.90
8709;DHT22;4391;48.678;9.280;2022-09-17T01:56:38;8.80;99.90
8709;DHT22;4391;48.678;9.280;2022-09-17T01:59:10;8.70;99.90
8709;DHT22;4391;48.678;9.280;2022-09-17T02:01:41;8.70;99.90
8709;DHT22;4391;48.678;9.280;2022-09-17T02:04:13;8.70;99.90
8709;DHT22;4391;48.678;9.280;2022-09-17T02:06:45;8.70;99.90
8709;DHT22;4391;48.678;9.280;2022-09-17T02:09:16;8.70;99.90
8709;DHT22;4391;48.678;9.280;2022-09-17T02:11:49;8.80;99.90
8709;DHT22;4391;48.678;9.280;2022-09-17T02:14:21;8.80;99.90
8709;DHT22;4391;48.678;9.280;2022-09-17T02:16:53;8.90;99.90
8709;DHT22;4391;48.678;9.280;2022-09-17T02:19:23;8.80;99.90
8709;DHT22;4391;48.678;9.280;2022-09-17T02:21:58;8.80;99.90
8709;DHT22;4391;48.678;9.280;2022-09-17T02:24:32;8.70;99.90
8709;DHT22;4391;48.678;9.280;2022-09-17T02:27:04;8.70;99.90
8709;DHT22;4391;48.678;9.280;2022-09-17T02:29:34;8.70;99.90
8709;DHT22;4391;48.678;9.280;2022-09-17T02:32:04;8.80;99.90
8709;DHT22;4391;48.678;9.280;2022-09-17T02:34:32;8.80;99.90
8709;DHT22;4391;48.678;9.280;2022-09-17T02:36:59;8.80;99.90
8709;DHT22;4391;48.678;9.280;2022-09-17T02:39:27;8.90;99.90
8709;DHT22;4391;48.678;9.280;2022-09-17T02:42:01;8.90;99.90
8709;DHT22;4391;48.678;9.280;2022-09-17T02:44:37;8.90;99.90
8709;DHT22;4391;48.678;9.280;2022-09-17T02:47:35;8.90;98.60
8709;DHT22;4391;48.678;9.280;2022-09-17T02:50:14;8.90;92.90
8709;DHT22;4391;48.678;9.280;2022-09-17T02:52:52;8.90;99.20
8709;DHT22;4391;48.678;9.280;2022-09-17T02:55:28;8.90;99.90
8709;DHT22;4391;48.678;9.280;2022-09-17T02:58:03;9.00;97.70
8709;DHT22;4391;48.678;9.280;2022-09-17T03:00:32;9.00;95.90
8709;DHT22;4391;48.678;9.280;2022-09-17T03:03:05;9.10;84.10
8709;DHT22;4391;48.678;9.280;2022-09-17T03:05:36;9.10;89.80
8709;DHT22;4391;48.678;9.280;2022-09-17T03:08:03;9.10;90.80
8709;DHT22;4391;48.678;9.280;2022-09-17T03:10:33;9.20;68.20
8709;DHT22;4391;48.678;9.280;2022-09-17T03:13:00;9.10;64.00
8709;DHT22;4391;48.678;9.280;2022-09-17T03:15:27;9.20;76.80
8709;DHT22;4391;48.678;9.280;2022-09-17T03:17:54;9.20;70.90
8709;DHT22;4391;48.678;9.280;2022-09-17T03:20:22;9.10;77.70
8709;DHT22;4391;48.678;9.280;2022-09-17T03:22:50;9.10;64.80
8709;DHT22;4391;48.678;9.280;2022-09-17T03:25:17;9.10;62.10
8709;DHT22;4391;48.678;9.280;2022-09-17T03:27:44;9.00;66.30
8709;DHT22;4391;48.678;9.280;2022-09-17T03:30:11;8.90;76.40
8709;DHT22;4391;48.678;9.280;2022-09-17T03:32:37;8.80;75.60
8709;DHT22;4391;48.678;9.280;2022-09-17T03:35:04;8.80;91.20
8709;DHT22;4391;48.678;9.280;2022-09-17T03:37:33;8.70;92.40
8709;DHT22;4391;48.678;9.280;2022-09-17T03:40:00;8.60;97.30
8709;DHT22;4391;48.678;9.280;2022-09-17T03:42:26;8.60;97.50
8709;DHT22;4391;48.678;9.280;2022-09-17T03:44:53;8.60;94.50
8709;DHT22;4391;48.678;9.280;2022-09-17T03:47:21;8.50;96.90
8709;DHT22;4391;48.678;9.280;2022-09-17T03:49:48;8.50;99.90
8709;DHT22;4391;48.678;9.280;2022-09-17T03:52:16;8.40;99.90
8709;DHT22;4391;48.678;9.280;2022-09-17T03:54:44;8.40;99.90
8709;DHT22;4391;48.678;9.280;2022-09-17T03:57:11;8.50;99.90
8709;DHT22;4391;48.678;9.280;2022-09-17T03:59:38;8.60;99.90
8709;DHT22;4391;48.678;9.280;2022-09-17T04:02:08;8.60;98.50
8709;DHT22;4391;48.678;9.280;2022-09-17T04:04:34;8.60;95.80
8709;DHT22;4391;48.678;9.280;2022-09-17T04:07:01;8.70;91.50
8709;DHT22;4391;48.678;9.280;2022-09-17T04:09:28;8.60;90.50
8709;DHT22;4391;48.678;9.280;2022-09-17T04:11:56;8.70;87.70
8709;DHT22;4391;48.678;9.280;2022-09-17T04:14:23;8.70;89.50
8709;DHT22;4391;48.678;9.280;2022-09-17T04:16:50;8.70;90.50
8709;DHT22;4391;48.678;9.280;2022-09-17T04:19:17;8.60;93.90
8709;DHT22;4391;48.678;9.280;2022-09-17T04:21:44;8.50;93.10
8709;DHT22;4391;48.678;9.280;2022-09-17T04:24:10;8.50;96.50
8709;DHT22;4391;48.678;9.280;2022-09-17T04:26:37;8.50;98.80
8709;DHT22;4391;48.678;9.280;2022-09-17T04:29:06;8.60;91.50
8709;DHT22;4391;48.678;9.280;2022-09-17T04:31:32;8.70;82.30
8709;DHT22;4391;48.678;9.280;2022-09-17T04:33:59;8.70;83.30
8709;DHT22;4391;48.678;9.280;2022-09-17T04:36:26;8.80;88.40
8709;DHT22;4391;48.678;9.280;2022-09-17T04:38:53;8.80;83.50
8709;DHT22;4391;48.678;9.280;2022-09-17T04:41:20;8.70;83.40
8709;DHT22;4391;48.678;9.280;2022-09-17T04:43:47;8.90;80.80
8709;DHT22;4391;48.678;9.280;2022-09-17T04:46:15;8.80;88.90
8709;DHT22;4391;48.678;9.280;2022-09-17T04:48:42;8.70;74.70
8709;DHT22;4391;48.678;9.280;2022-09-17T04:51:09;8.70;85.20
8709;DHT22;4391;48.678;9.280;2022-09-17T04:53:36;8.60;91.10
8709;DHT22;4391;48.678;9.280;2022-09-17T04:56:04;8.60;89.70
8709;DHT22;4391;48.678;9.280;2022-09-17T04:58:31;8.60;93.90
8709;DHT22;4391;48.678;9.280;2022-09-17T05:00:57;8.60;97.30
8709;DHT22;4391;48.678;9.280;2022-09-17T05:03:26;8.70;93.80
8709;DHT22;4391;48.678;9.280;2022-09-17T05:05:52;8.30;97.20
8709;DHT22;4391;48.678;9.280;2022-09-17T05:08:19;8.80;97.10
8709;DHT22;4391;48.678;9.280;2022-09-17T05:10:49;8.90;83.80
8709;DHT22;4391;48.678;9.280;2022-09-17T05:13:15;9.00;78.40
8709;DHT22;4391;48.678;9.280;2022-09-17T05:15:42;9.00;90.00
8709;DHT22;4391;48.678;9.280;2022-09-17T05:18:09;9.10;87.40
8709;DHT22;4391;48.678;9.280;2022-09-17T05:20:37;9.20;72.20
8709;DHT22;4391;48.678;9.280;2022-09-17T05:23:04;9.20;53.50
8709;DHT22;4391;48.678;9.280;2022-09-17T05:25:31;9.20;45.20
8709;DHT22;4391;48.678;9.280;2022-09-17T05:27:58;9.30;40.30
8709;DHT22;4391;48.678;9.280;2022-09-17T05:30:25;9.30;22.40
8709;DHT22;4391;48.678;9.280;2022-09-17T05:32:58;9.30;17.00
8709;DHT22;4391;48.678;9.280;2022-09-17T05:35:25;9.20;13.90
8709;DHT22;4391;48.678;9.280;2022-09-17T05:37:57;9.20;1.00
8709;DHT22;4391;48.678;9.280;2022-09-17T05:40:24;9.10;17.40
8709;DHT22;4391;48.678;9.280;2022-09-17T05:42:51;9.10;36.60
8709;DHT22;4391;48.678;9.280;2022-09-17T05:45:18;9.00;29.90
8709;DHT22;4391;48.678;9.280;2022-09-17T05:47:45;9.10;25.10
8709;DHT22;4391;48.678;9.280;2022-09-17T05:50:11;9.10;33.30
8709;DHT22;4391;48.678;9.280;2022-09-17T05:52:38;9.10;1.40
8709;DHT22;4391;48.678;9.280;2022-09-17T05:55:07;9.10;11.40
8709;DHT22;4391;48.678;9.280;2022-09-17T05:57:34;9.20;18.20
8709;DHT22;4391;48.678;9.280;2022-09-17T06:00:02;9.20;8.90
8709;DHT22;4391;48.678;9.280;2022-09-17T06:02:29;9.30;1.00
8709;DHT22;4391;48.678;9.280;2022-09-17T06:04:56;9.40;1.00
8709;DHT22;4391;48.678;9.280;2022-09-17T06:07:25;9.50;1.00
8709;DHT22;4391;48.678;9.280;2022-09-17T06:09:52;9.50;1.00
8709;DHT22;4391;48.678;9.280;2022-09-17T06:12:20;9.50;1.00
8709;DHT22;4391;48.678;9.280;2022-09-17T06:14:47;9.60;1.00
8709;DHT22;4391;48.678;9.280;2022-09-17T06:17:14;9.60;1.00
8709;DHT22;4391;48.678;9.280;2022-09-17T06:19:41;9.60;1.00
8709;DHT22;4391;48.678;9.280;2022-09-17T06:22:08;9.70;1.00
8709;DHT22;4391;48.678;9.280;2022-09-17T06:24:35;9.70;1.00
8709;DHT22;4391;48.678;9.280;2022-09-17T06:27:01;9.70;1.00
8709;DHT22;4391;48.678;9.280;2022-09-17T06:29:30;9.70;1.00
8709;DHT22;4391;48.678;9.280;2022-09-17T06:31:57;9.80;1.00
8709;DHT22;4391;48.678;9.280;2022-09-17T06:34:25;9.90;1.00
8709;DHT22;4391;48.678;9.280;2022-09-17T06:36:52;10.00;1.00
8709;DHT22;4391;48.678;9.280;2022-09-17T06:39:18;10.00;1.00
8709;DHT22;4391;48.678;9.280;2022-09-17T06:41:45;10.10;1.00
8709;DHT22;4391;48.678;9.280;2022-09-17T06:44:12;10.10;1.00
8709;DHT22;4391;48.678;9.280;2022-09-17T06:46:40;10.30;1.00
8709;DHT22;4391;48.678;9.280;2022-09-17T06:49:08;10.40;1.00
8709;DHT22;4391;48.678;9.280;2022-09-17T06:51:36;10.70;99.90
8709;DHT22;4391;48.678;9.280;2022-09-17T06:54:03;10.60;99.90
8709;DHT22;4391;48.678;9.280;2022-09-17T06:56:30;10.50;99.90
8709;DHT22;4391;48.678;9.280;2022-09-17T06:58:58;10.50;99.90
8709;DHT22;4391;48.678;9.280;2022-09-17T07:01:25;10.50;99.90
8709;DHT22;4391;48.678;9.280;2022-09-17T07:03:54;10.40;1.00
8709;DHT22;4391;48.678;9.280;2022-09-17T07:06:20;10.50;47.50
8709;DHT22;4391;48.678;9.280;2022-09-17T07:08:47;10.40;99.90
8709;DHT22;4391;48.678;9.280;2022-09-17T07:11:14;10.40;1.00
8709;DHT22;4391;48.678;9.280;2022-09-17T07:13:41;10.40;53.80
8709;DHT22;4391;48.678;9.280;2022-09-17T07:16:09;10.50;99.90
8709;DHT22;4391;48.678;9.280;2022-09-17T07:18:36;10.60;11.50
8709;DHT22;4391;48.678;9.280;2022-09-17T07:21:06;10.60;55.40
8709;DHT22;4391;48.678;9.280;2022-09-17T07:23:34;10.60;9.60
8709;DHT22;4391;48.678;9.280;2022-09-17T07:26:03;10.60;99.90
8709;DHT22;4391;48.678;9.280;2022-09-17T07:28:30;10.60;99.90
8709;DHT22;4391;48.678;9.280;2022-09-17T07:30:57;10.40;1.00
8709;DHT22;4391;48.678;9.280;2022-09-17T07:33:25;10.30;1.00
8709;DHT22;4391;48.678;9.280;2022-09-17T07:35:53;10.20;1.00
8709;DHT22;4391;48.678;9.280;2022-09-17T07:38:22;10.10;1.00
8709;DHT22;4391;48.678;9.280;2022-09-17T07:40:54;10.00;1.00
8709;DHT22;4391;48.678;9.280;2022-09-17T07:43:22;10.10;1.00
8709;DHT22;4391;48.678;9.280;2022-09-17T07:45:49;10.00;1.00
8709;DHT22;4391;48.678;9.280;2022-09-17T07:48:17;9.90;1.00
8709;DHT22;4391;48.678;9.280;2022-09-17T07:50:44;9.90;18.90
8709;DHT22;4391;48.678;9.280;2022-09-17T07:53:11;9.80;22.40
8709;DHT22;4391;48.678;9.280;2022-09-17T07:55:39;9.80;36.50
8709;DHT22;4391;48.678;9.280;2022-09-17T07:58:07;9.90;61.30
8709;DHT22;4391;48.678;9.280;2022-09-17T08:00:33;9.80;9.60
8709;DHT22;4391;48.678;9.280;2022-09-17T08:03:00;9.90;44.80
8709;DHT22;4391;48.678;9.280;2022-09-17T08:05:27;9.90;30.50
8709;DHT22;4391;48.678;9.280;2022-09-17T08:07:54;9.80;42.80
8709;DHT22;4391;48.678;9.280;2022-09-17T08:10:22;9.80;47.00
8709;DHT22;4391;48.678;9.280;2022-09-17T08:12:54;9.70;45.10
8709;DHT22;4391;48.678;9.280;2022-09-17T08:15:21;9.60;90.20
8709;DHT22;4391;48.678;9.280;2022-09-17T08:17:49;9.50;99.90
8709;DHT22;4391;48.678;9.280;2022-09-17T08:20:16;9.40;99.90
8709;DHT22;4391;48.678;9.280;2022-09-17T08:22:43;9.40;99.90
8709;DHT22;4391;48.678;9.280;2022-09-17T08:25:10;9.50;99.90
8709;DHT22;4391;48.678;9.280;2022-09-17T08:27:37;9.50;99.90
8709;DHT22;4391;48.678;9.280;2022-09-17T08:30:07;9.60;99.90
8709;DHT22;4391;48.678;9.280;2022-09-17T08:32:34;9.70;99.90
8709;DHT22;4391;48.678;9.280;2022-09-17T08:35:01;9.70;99.90
8709;DHT22;4391;48.678;9.280;2022-09-17T08:37:28;9.70;90.80
8709;DHT22;4391;48.678;9.280;2022-09-17T08:39:55;9.70;96.60
8709;DHT22;4391;48.678;9.280;2022-09-17T08:42:29;9.80;99.90
8709;DHT22;4391;48.678;9.280;2022-09-17T08:44:58;9.90;94.50
8709;DHT22;4391;48.678;9.280;2022-09-17T08:47:32;9.90;89.50
8709;DHT22;4391;48.678;9.280;2022-09-17T08:50:02;10.00;49.50
8709;DHT22;4391;48.678;9.280;2022-09-17T08:53:06;10.00;47.90
8709;DHT22;4391;48.678;9.280;2022-09-17T08:55:39;9.90;35.00
8709;DHT22;4391;48.678;9.280;2022-09-17T08:58:28;9.90;39.40
8709;DHT22;4391;48.678;9.280;2022-09-17T09:01:12;10.10;63.60
8709;DHT22;4391;48.678;9.280;2022-09-17T09:06:47;10.60;36.90
8709;DHT22;4391;48.678;9.280;2022-09-17T09:09:16;10.90;38.60
8709;DHT22;4391;48.678;9.280;2022-09-17T09:11:47;11.10;12.60
8709;DHT22;4391;48.678;9.280;2022-09-17T09:14:18;11.10;1.00
8709;DHT22;4391;48.678;9.280;2022-09-17T09:16:47;11.20;1.00
8709;DHT22;4391;48.678;9.280;2022-09-17T09:19:22;11.40;1.00
8709;DHT22;4391;48.678;9.280;2022-09-17T09:22:14;11.50;1.00
8709;DHT22;4391;48.678;9.280;2022-09-17T09:24:50;11.70;1.00
8709;DHT22;4391;48.678;9.280;2022-09-17T09:27:23;11.80;99.90
8709;DHT22;4391;48.678;9.280;2022-09-17T09:30:01;11.70;99.90
8709;DHT22;4391;48.678;9.280;2022-09-17T09:32:47;11.80;1.00
8709;DHT22;4391;48.678;9.280;2022-09-17T09:35:20;12.10;1.00
8709;DHT22;4391;48.678;9.280;2022-09-17T09:37:56;12.30;99.90
8709;DHT22;4391;48.678;9.280;2022-09-17T09:40:36;12.60;99.90
8709;DHT22;4391;48.678;9.280;2022-09-17T09:43:12;12.80;1.00
8709;DHT22;4391;48.678;9.280;2022-09-17T09:45:56;12.90;1.00
8709;DHT22;4391;48.678;9.280;2022-09-17T09:48:31;12.90;99.90
8709;DHT22;4391;48.678;9.280;2022-09-17T09:51:15;13.00;99.90
8709;DHT22;4391;48.678;9.280;2022-09-17T09:53:53;13.10;99.90
8709;DHT22;4391;48.678;9.280;2022-09-17T09:56:38;13.00;1.00
8709;DHT22;4391;48.678;9.280;2022-09-17T09:59:11;13.10;1.00
8709;DHT22;4391;48.678;9.280;2022-09-17T10:01:40;13.30;99.90
8709;DHT22;4391;48.678;9.280;2022-09-17T10:04:16;13.30;15.50
8709;DHT22;4391;48.678;9.280;2022-09-17T10:06:45;13.40;99.90
8709;DHT22;4391;48.678;9.280;2022-09-17T10:09:13;13.30;99.90
8709;DHT22;4391;48.678;9.280;2022-09-17T10:11:41;13.40;1.00
8709;DHT22;4391;48.678;9.280;2022-09-17T10:14:22;13.60;99.90
8709;DHT22;4391;48.678;9.280;2022-09-17T10:17:02;13.40;99.90
8709;DHT22;4391;48.678;9.280;2022-09-17T10:19:35;13.30;99.90
8709;DHT22;4391;48.678;9.280;2022-09-17T10:22:18;13.20;1.00
8709;DHT22;4391;48.678;9.280;2022-09-17T10:24:46;13.00;99.90
8709;DHT22;4391;48.678;9.280;2022-09-17T10:27:17;12.80;1.00
8709;DHT22;4391;48.678;9.280;2022-09-17T10:29:46;12.90;1.00
8709;DHT22;4391;48.678;9.280;2022-09-17T10:32:14;13.20;99.90
8709;DHT22;4391;48.678;9.280;2022-09-17T10:34:56;13.70;75.80
8709;DHT22;4391;48.678;9.280;2022-09-17T10:37:43;14.20;1.00
8709;DHT22;4391;48.678;9.280;2022-09-17T10:40:26;14.50;1.00
8709;DHT22;4391;48.678;9.280;2022-09-17T10:43:21;14.70;1.00
8709;DHT22;4391;48.678;9.280;2022-09-17T10:45:56;15.80;99.90
8709;DHT22;4391;48.678;9.280;2022-09-17T10:48:26;16.90;99.90
8709;DHT22;4391;48.678;9.280;2022-09-17T10:50:55;17.20;99.90
8709;DHT22;4391;48.678;9.280;2022-09-17T10:53:24;17.00;99.90
8709;DHT22;4391;48.678;9.280;2022-09-17T10:55:57;17.30;99.90
8709;DHT22;4391;48.678;9.280;2022-09-17T10:58:39;17.80;99.90
8709;DHT22;4391;48.678;9.280;2022-09-17T11:01:18;18.30;99.90
8709;DHT22;4391;48.678;9.280;2022-09-17T11:04:20;17.90;99.90
8709;DHT22;4391;48.678;9.280;2022-09-17T11:09:51;18.00;99.90
8709;DHT22;4391;48.678;9.280;2022-09-17T11:12:30;18.90;99.90
8709;DHT22;4391;48.678;9.280;2022-09-17T11:15:16;19.30;99.90
8709;DHT22;4391;48.678;9.280;2022-09-17T11:18:01;19.40;99.90
8709;DHT22;4391;48.678;9.280;2022-09-17T11:20:42;18.70;99.90
8709;DHT22;4391;48.678;9.280;2022-09-17T11:23:26;18.40;99.90
8709;DHT22;4391;48.678;9.280;2022-09-17T11:26:00;18.70;99.90
8709;DHT22;4391;48.678;9.280;2022-09-17T11:28:42;19.30;99.90
8709;DHT22;4391;48.678;9.280;2022-09-17T11:31:23;20.10;99.90
8709;DHT22;4391;48.678;9.280;2022-09-17T11:36:58;22.00;99.90
8709;DHT22;4391;48.678;9.280;2022-09-17T11:39:32;22.20;99.90
8709;DHT22;4391;48.678;9.280;2022-09-17T11:42:03;21.50;99.90
8709;DHT22;4391;48.678;9.280;2022-09-17T11:44:38;21.10;99.90
8709;DHT22;4391;48.678;9.280;2022-09-17T11:47:09;20.90;99.90
8709;DHT22;4391;48.678;9.280;2022-09-17T11:49:48;21.20;99.90
8709;DHT22;4391;48.678;9.280;2022-09-17T11:52:19;21.60;99.90
8709;DHT22;4391;48.678;9.280;2022-09-17T11:54:51;22.10;99.90
8709;DHT22;4391;48.678;9.280;2022-09-17T11:57:25;21.50;99.90
8709;DHT22;4391;48.678;9.280;2022-09-17T11:59:57;20.60;99.90
8709;DHT22;4391;48.678;9.280;2022-09-17T12:02:33;19.80;99.90
8709;DHT22;4391;48.678;9.280;2022-09-17T12:05:10;19.10;99.90
8709;DHT22;4391;48.678;9.280;2022-09-17T12:07:46;18.60;99.90
8709;DHT22;4391;48.678;9.280;2022-09-17T12:10:34;18.40;99.90
8709;DHT22;4391;48.678;9.280;2022-09-17T12:13:13;18.00;99.90
8709;DHT22;4391;48.678;9.280;2022-09-17T12:15:44;17.70;99.90
8709;DHT22;4391;48.678;9.280;2022-09-17T12:18:20;17.50;99.90
8709;DHT22;4391;48.678;9.280;2022-09-17T12:20:53;17.30;99.90
8709;DHT22;4391;48.678;9.280;2022-09-17T12:23:27;16.80;99.90
8709;DHT22;4391;48.678;9.280;2022-09-17T12:26:03;16.40;99.90
8709;DHT22;4391;48.678;9.280;2022-09-17T12:28:36;16.20;99.90
8709;DHT22;4391;48.678;9.280;2022-09-17T12:31:13;16.00;99.90
8709;DHT22;4391;48.678;9.280;2022-09-17T12:33:46;15.60;99.90
8709;DHT22;4391;48.678;9.280;2022-09-17T12:36:28;15.20;99.90
8709;DHT22;4391;48.678;9.280;2022-09-17T12:42:10;14.50;99.90
8709;DHT22;4391;48.678;9.280;2022-09-17T12:44:53;14.20;99.90
8709;DHT22;4391;48.678;9.280;2022-09-17T12:47:43;14.10;99.90
8709;DHT22;4391;48.678;9.280;2022-09-17T12:50:18;14.00;99.90
8709;DHT22;4391;48.678;9.280;2022-09-17T12:52:57;14.40;99.90
8709;DHT22;4391;48.678;9.280;2022-09-17T12:55:36;15.20;99.90
8709;DHT22;4391;48.678;9.280;2022-09-17T12:58:11;17.70;99.90
8709;DHT22;4391;48.678;9.280;2022-09-17T13:00:47;19.00;99.90
8709;DHT22;4391;48.678;9.280;2022-09-17T13:03:21;18.90;99.90
8709;DHT22;4391;48.678;9.280;2022-09-17T13:09:26;16.30;99.90
8709;DHT22;4391;48.678;9.280;2022-09-17T13:14:55;14.00;99.90
8709;DHT22;4391;48.678;9.280;2022-09-17T13:17:32;13.70;1.00
8709;DHT22;4391;48.678;9.280;2022-09-17T13:20:10;13.50;99.90
8709;DHT22;4391;48.678;9.280;2022-09-17T13:22:44;13.20;1.00
8709;DHT22;4391;48.678;9.280;2022-09-17T13:25:13;12.80;99.90
8709;DHT22;4391;48.678;9.280;2022-09-17T13:27:43;12.40;1.00
8709;DHT22;4391;48.678;9.280;2022-09-17T13:30:12;11.90;99.90
8709;DHT22;4391;48.678;9.280;2022-09-17T13:33:02;11.40;99.90
8709;DHT22;4391;48.678;9.280;2022-09-17T13:35:48;10.80;1.00
8709;DHT22;4391;48.678;9.280;2022-09-17T13:38:20;10.40;1.00
8709;DHT22;4391;48.678;9.280;2022-09-17T13:40:47;10.20;1.00
8709;DHT22;4391;48.678;9.280;2022-09-17T13:43:18;10.00;1.00
8709;DHT22;4391;48.678;9.280;2022-09-17T13:46:07;9.90;1.00
8709;DHT22;4391;48.678;9.280;2022-09-17T13:48:45;9.90;1.00
8709;DHT22;4391;48.678;9.280;2022-09-17T13:51:45;10.20;40.20
8709;DHT22;4391;48.678;9.280;2022-09-17T13:54:14;10.80;1.00
8709;DHT22;4391;48.678;9.280;2022-09-17T13:56:44;11.90;1.00
8709;DHT22;4391;48.678;9.280;2022-09-17T13:59:15;13.30;1.00
8709;DHT22;4391;48.678;9.280;2022-09-17T14:02:01;14.30;1.00
8709;DHT22;4391;48.678;9.280;2022-09-17T14:04:44;15.10;99.90
8709;DHT22;4391;48.678;9.280;2022-09-17T14:07:34;15.40;99.90
8709;DHT22;4391;48.678;9.280;2022-09-17T14:10:34;16.40;1.00
8709;DHT22;4391;48.678;9.280;2022-09-17T14:13:27;17.60;99.90
8709;DHT22;4391;48.678;9.280;2022-09-17T14:16:24;19.20;99.90
8709;DHT22;4391;48.678;9.280;2022-09-17T14:18:57;20.60;99.90
8709;DHT22;4391;48.678;9.280;2022-09-17T14:21:31;21.10;99.90
8709;DHT22;4391;48.678;9.280;2022-09-17T14:24:01;21.60;99.90
8709;DHT22;4391;48.678;9.280;2022-09-17T14:30:05;19.60;99.90
8709;DHT22;4391;48.678;9.280;2022-09-17T14:32:38;19.40;99.90
8709;DHT22;4391;48.678;9.280;2022-09-17T14:35:18;18.50;99.90
8709;DHT22;4391;48.678;9.280;2022-09-17T14:37:52;17.90;99.90
8709;DHT22;4391;48.678;9.280;2022-09-17T14:40:21;17.70;99.90
8709;DHT22;4391;48.678;9.280;2022-09-17T14:42:52;17.10;99.90
8709;DHT22;4391;48.678;9.280;2022-09-17T14:45:23;16.60;99.90
8709;DHT22;4391;48.678;9.280;2022-09-17T14:50:51;16.80;99.90
8709;DHT22;4391;48.678;9.280;2022-09-17T14:53:19;16.30;99.90
8709;DHT22;4391;48.678;9.280;2022-09-17T14:55:48;15.80;99.90
8709;DHT22;4391;48.678;9.280;2022-09-17T14:58:29;15.50;99.90
8709;DHT22;4391;48.678;9.280;2022-09-17T15:00:58;14.80;99.90
8709;DHT22;4391;48.678;9.280;2022-09-17T15:03:25;14.40;1.00
8709;DHT22;4391;48.678;9.280;2022-09-17T15:05:52;14.60;1.00
8709;DHT22;4391;48.678;9.280;2022-09-17T15:08:22;15.10;99.90
8709;DHT22;4391;48.678;9.280;2022-09-17T15:10:52;15.40;99.90
8709;DHT22;4391;48.678;9.280;2022-09-17T15:13:22;15.10;99.90
8709;DHT22;4391;48.678;9.280;2022-09-17T15:15:58;14.70;1.00
8709;DHT22;4391;48.678;9.280;2022-09-17T15:18:34;14.50;1.00
8709;DHT22;4391;48.678;9.280;2022-09-17T15:21:03;14.40;1.00
8709;DHT22;4391;48.678;9.280;2022-09-17T15:23:35;14.50;1.00
8709;DHT22;4391;48.678;9.280;2022-09-17T15:26:03;14.10;1.00
8709;DHT22;4391;48.678;9.280;2022-09-17T15:28:34;14.00;1.00
8709;DHT22;4391;48.678;9.280;2022-09-17T15:31:03;13.80;24.00
8709;DHT22;4391;48.678;9.280;2022-09-17T15:33:31;13.60;99.90
8709;DHT22;4391;48.678;9.280;2022-09-17T15:36:01;13.40;99.90
8709;DHT22;4391;48.678;9.280;2022-09-17T15:38:35;13.20;1.00
8709;DHT22;4391;48.678;9.280;2022-09-17T15:41:23;13.20;99.90
8709;DHT22;4391;48.678;9.280;2022-09-17T15:43:50;13.40;1.00
8709;DHT22;4391;48.678;9.280;2022-09-17T15:46:22;13.40;1.00
8709;DHT22;4391;48.678;9.280;2022-09-17T15:48:51;13.40;99.90
8709;DHT22;4391;48.678;9.280;2022-09-17T15:51:24;13.20;99.90
8709;DHT22;4391;48.678;9.280;2022-09-17T15:53:55;13.10;3.10
8709;DHT22;4391;48.678;9.280;2022-09-17T15:56:23;13.00;16.10
8709;DHT22;4391;48.678;9.280;2022-09-17T15:58:55;12.90;10.80
8709;DHT22;4391;48.678;9.280;2022-09-17T16:04:26;12.90;99.90
8709;DHT22;4391;48.678;9.280;2022-09-17T16:06:58;12.80;99.90
8709;DHT22;4391;48.678;9.280;2022-09-17T16:09:48;12.80;99.90
8709;DHT22;4391;48.678;9.280;2022-09-17T16:12:18;12.80;99.90
8709;DHT22;4391;48.678;9.280;2022-09-17T16:14:47;12.90;99.90
8709;DHT22;4391;48.678;9.280;2022-09-17T16:17:26;12.70;99.90
8709;DHT22;4391;48.678;9.280;2022-09-17T16:19:54;12.70;1.00
8709;DHT22;4391;48.678;9.280;2022-09-17T16:22:21;12.50;1.00
8709;DHT22;4391;48.678;9.280;2022-09-17T16:24:49;12.40;99.90
8709;DHT22;4391;48.678;9.280;2022-09-17T16:27:20;12.30;99.90
8709;DHT22;4391;48.678;9.280;2022-09-17T16:29:48;12.30;98.10
8709;DHT22;4391;48.678;9.280;2022-09-17T16:32:16;12.30;1.00
8709;DHT22;4391;48.678;9.280;2022-09-17T16:34:43;12.30;18.30
8709;DHT22;4391;48.678;9.280;2022-09-17T16:37:10;12.40;99.90
8709;DHT22;4391;48.678;9.280;2022-09-17T16:39:37;12.50;99.90
8709;DHT22;4391;48.678;9.280;2022-09-17T16:42:05;12.50;99.90
8709;DHT22;4391;48.678;9.280;2022-09-17T16:44:32;12.70;99.90
8709;DHT22;4391;48.678;9.280;2022-09-17T16:46:59;12.70;99.90
8709;DHT22;4391;48.678;9.280;2022-09-17T16:49:26;12.70;99.90
8709;DHT22;4391;48.678;9.280;2022-09-17T16:51:53;12.80;99.90
8709;DHT22;4391;48.678;9.280;2022-09-17T16:54:20;12.80;99.90
8709;DHT22;4391;48.678;9.280;2022-09-17T16:56:47;12.70;99.90
8709;DHT22;4391;48.678;9.280;2022-09-17T16:59:15;12.60;99.90
8709;DHT22;4391;48.678;9.280;2022-09-17T17:01:42;12.50;99.90
8709;DHT22;4391;48.678;9.280;2022-09-17T17:04:09;12.40;99.90
8709;DHT22;4391;48.678;9.280;2022-09-17T17:06:36;12.40;1.00
8709;DHT22;4391;48.678;9.280;2022-09-17T17:09:03;12.30;1.00
8709;DHT22;4391;48.678;9.280;2022-09-17T17:11:30;12.20;31.90
8709;DHT22;4391;48.678;9.280;2022-09-17T17:13:56;12.10;63.40